createdAt,value
2022-08-12T00:04:33.687Z,3.78
2022-08-12T00:09:55.166Z,4.55
2022-08-12T00:15:17.775Z,4.30
2022-08-12T00:20:39.007Z,4.63
2022-08-12T00:26:23.747Z,4.53
2022-08-12T00:31:44.776Z,4.63
2022-08-12T00:37:13.044Z,5.28
2022-08-12T00:42:19.933Z,5.00
2022-08-12T00:47:26.092Z,5.00
2022-08-12T00:52:29.970Z,4.65
2022-08-12T00:57:36.754Z,3.97
2022-08-12T01:02:46.512Z,5.47
2022-08-12T01:08:08.750Z,4.03
2022-08-12T01:13:19.881Z,4.82
2022-08-12T01:18:28.841Z,5.70
2022-08-12T01:23:57.675Z,4.90
2022-08-12T01:29:04.219Z,4.40
2022-08-12T01:34:28.615Z,4.25
2022-08-12T01:39:35.540Z,4.10
2022-08-12T01:44:41.678Z,4.43
2022-08-12T01:50:05.330Z,3.90
2022-08-12T01:55:10.459Z,5.03
2022-08-12T02:00:19.168Z,5.60
2022-08-12T02:05:56.045Z,5.50
2022-08-12T02:11:18.930Z,4.95
2022-08-12T02:16:49.561Z,4.55
2022-08-12T02:22:04.917Z,4.75
2022-08-12T02:27:10.632Z,4.72
2022-08-12T02:32:17.630Z,5.00
2022-08-12T02:37:22.465Z,5.50
2022-08-12T02:42:30.194Z,7.77
2022-08-12T02:47:59.708Z,7.50
2022-08-12T02:53:05.284Z,6.30
2022-08-12T02:58:12.323Z,6.40
2022-08-12T03:03:22.655Z,6.22
2022-08-12T03:08:33.117Z,6.70
2022-08-12T03:13:43.022Z,5.35
2022-08-12T03:18:49.970Z,6.30
2022-08-12T03:23:55.730Z,6.93
2022-08-12T03:29:01.436Z,6.90
2022-08-12T03:34:08.627Z,7.35
2022-08-12T03:39:35.206Z,8.70
2022-08-12T03:45:00.670Z,8.23
2022-08-12T03:50:25.727Z,8.85
2022-08-12T03:55:49.612Z,7.45
2022-08-12T04:00:56.824Z,9.43
2022-08-12T04:06:03.426Z,8.63
2022-08-12T04:16:29.962Z,8.25
2022-08-12T04:21:36.326Z,8.45
2022-08-12T04:26:45.880Z,8.50
2022-08-12T04:31:50.820Z,8.48
2022-08-12T04:36:55.864Z,8.40
2022-08-12T04:42:01.774Z,8.68
2022-08-12T04:47:12.584Z,9.18
2022-08-12T04:52:19.726Z,8.18
2022-08-12T04:57:23.370Z,8.98
2022-08-12T05:02:27.328Z,11.23
2022-08-12T05:07:34.304Z,13.55
2022-08-12T05:12:58.588Z,12.63
2022-08-12T05:18:16.791Z,12.05
2022-08-12T05:23:36.343Z,14.05
2022-08-12T05:28:44.044Z,15.25
2022-08-12T05:33:51.187Z,14.07
2022-08-12T05:39:00.317Z,19.15
2022-08-12T05:44:06.558Z,20.20
2022-08-12T05:49:12.714Z,19.17
2022-08-12T05:54:35.335Z,18.33
2022-08-12T05:59:44.374Z,16.33
2022-08-12T06:04:48.358Z,15.65
2022-08-12T06:09:53.378Z,16.20
2022-08-12T06:15:00.235Z,16.98
2022-08-12T06:20:26.481Z,17.80
2022-08-12T06:25:30.626Z,12.55
2022-08-12T06:30:39.174Z,11.73
2022-08-12T06:35:49.211Z,10.02
2022-08-12T06:41:14.706Z,8.25
2022-08-12T06:46:19.640Z,8.05
2022-08-12T06:51:24.726Z,7.43
2022-08-12T06:57:01.917Z,8.70
2022-08-12T07:06:59.215Z,8.77
2022-08-12T07:12:06.805Z,8.68
2022-08-12T07:17:12.975Z,8.50
2022-08-12T07:22:20.625Z,6.80
2022-08-12T07:27:27.579Z,9.35
2022-08-12T07:32:31.662Z,6.95
2022-08-12T07:37:41.647Z,8.80
2022-08-12T07:42:47.110Z,7.78
2022-08-12T07:52:56.491Z,9.40
2022-08-12T07:58:02.803Z,9.52
2022-08-12T08:03:08.704Z,9.63
2022-08-12T08:08:19.843Z,9.63
2022-08-12T08:13:27.720Z,7.80
2022-08-12T08:18:33.232Z,10.60
2022-08-12T08:23:56.147Z,9.48
2022-08-12T08:29:02.602Z,10.70
2022-08-12T08:34:33.641Z,13.25
2022-08-12T08:39:31.983Z,12.63
2022-08-12T08:44:39.675Z,14.70
2022-08-12T08:49:43.438Z,13.20
2022-08-12T08:54:47.732Z,13.82
2022-08-12T08:59:52.751Z,11.27
2022-08-12T09:10:31.126Z,14.15
2022-08-12T09:15:39.117Z,10.73
2022-08-12T09:20:50.734Z,11.90
2022-08-12T09:25:55.038Z,10.68
2022-08-12T09:31:01.158Z,12.98
2022-08-12T09:36:05.787Z,14.93
2022-08-12T09:42:33.815Z,18.00
2022-08-12T09:46:35.020Z,20.35
2022-08-12T09:51:43.386Z,17.50
2022-08-12T09:57:01.579Z,19.80
2022-08-12T10:02:45.496Z,18.08
2022-08-12T10:07:40.434Z,16.52
2022-08-12T10:13:12.584Z,17.27
2022-08-12T10:18:19.636Z,20.42
2022-08-12T10:23:39.399Z,17.60
2022-08-12T10:30:37.060Z,15.10
2022-08-12T10:34:36.610Z,16.05
2022-08-12T10:40:01.576Z,14.40
2022-08-12T10:45:09.722Z,13.73
2022-08-12T10:50:35.855Z,13.25
2022-08-12T10:55:46.224Z,12.88
2022-08-12T11:01:25.586Z,12.82
2022-08-12T11:07:06.906Z,15.75
2022-08-12T11:12:35.593Z,14.18
2022-08-12T11:17:34.712Z,12.68
2022-08-12T11:22:38.968Z,11.68
2022-08-12T11:27:42.952Z,17.33
2022-08-12T11:32:47.114Z,10.93
2022-08-12T11:37:59.069Z,9.35
2022-08-12T11:43:19.969Z,7.97
2022-08-12T11:48:27.006Z,8.00
2022-08-12T11:53:58.282Z,7.72
2022-08-12T12:02:01.175Z,7.80
2022-08-12T12:04:28.803Z,6.60
2022-08-12T12:09:53.615Z,13.27
2022-08-12T12:15:03.167Z,6.88
2022-08-12T12:20:13.046Z,5.95
2022-08-12T12:25:19.840Z,5.93
2022-08-12T12:30:30.168Z,4.72
2022-08-12T12:36:17.042Z,4.78
2022-08-12T12:41:16.228Z,6.33
2022-08-12T12:46:20.966Z,4.47
2022-08-12T12:51:48.567Z,4.47
2022-08-12T12:56:54.552Z,4.80
2022-08-12T13:02:08.282Z,5.07
2022-08-12T13:07:12.375Z,4.50
2022-08-12T13:12:18.027Z,3.72
2022-08-12T13:17:24.497Z,3.88
2022-08-12T13:22:49.041Z,3.67
2022-08-12T13:27:58.319Z,3.95
2022-08-12T13:33:03.512Z,8.05
2022-08-12T13:38:10.381Z,8.20
2022-08-12T13:43:41.316Z,4.00
2022-08-12T13:48:45.321Z,4.63
2022-08-12T13:53:58.395Z,4.70
2022-08-12T13:59:08.005Z,4.20
2022-08-12T14:04:12.654Z,6.88
2022-08-12T14:09:18.278Z,6.05
2022-08-12T14:14:25.244Z,5.20
2022-08-12T14:19:33.091Z,5.18
2022-08-12T14:24:42.517Z,4.57
2022-08-12T14:30:04.444Z,4.32
2022-08-12T14:35:12.684Z,4.72
2022-08-12T14:40:18.227Z,4.65
2022-08-12T14:45:24.754Z,6.22
2022-08-12T14:52:07.892Z,4.93
2022-08-12T15:01:42.550Z,9.88
2022-08-12T15:06:52.490Z,5.05
2022-08-12T15:12:03.074Z,5.72
2022-08-12T15:17:09.362Z,13.57
2022-08-12T15:22:35.901Z,5.18
2022-08-12T15:28:05.127Z,5.60
2022-08-12T15:33:12.825Z,5.22
2022-08-12T15:38:21.250Z,4.80
2022-08-12T15:43:35.538Z,5.82
2022-08-12T15:48:51.686Z,6.78
2022-08-12T15:54:33.667Z,8.18
2022-08-12T15:59:51.434Z,5.60
2022-08-12T16:04:56.543Z,6.35
2022-08-12T16:10:06.664Z,6.20
2022-08-12T16:15:13.509Z,5.82
2022-08-12T16:20:22.261Z,12.82
2022-08-12T16:26:03.234Z,6.55
2022-08-12T16:31:03.095Z,7.15
2022-08-12T16:36:18.780Z,6.47
2022-08-12T16:41:23.694Z,8.48
2022-08-12T16:46:33.344Z,5.82
2022-08-12T16:51:41.751Z,5.28
2022-08-12T16:56:57.358Z,5.80
2022-08-12T17:02:02.564Z,6.15
2022-08-12T17:07:15.531Z,6.38
2022-08-12T17:12:20.242Z,7.40
2022-08-12T17:17:26.358Z,7.00
2022-08-12T17:22:46.641Z,8.35
2022-08-12T17:27:56.989Z,7.97
2022-08-12T17:33:02.859Z,8.93
2022-08-12T17:38:13.490Z,7.20
2022-08-12T17:43:57.757Z,7.00
2022-08-12T17:48:54.852Z,12.50
2022-08-12T17:54:12.499Z,6.97
2022-08-12T17:59:19.311Z,9.25
2022-08-12T18:05:03.175Z,8.10
2022-08-12T18:10:09.375Z,7.53
2022-08-12T18:15:26.671Z,20.77
2022-08-12T18:20:45.050Z,6.25
2022-08-12T18:31:23.938Z,8.25
2022-08-12T18:36:31.693Z,6.90
2022-08-12T18:41:37.532Z,6.53
2022-08-12T18:46:55.263Z,6.10
2022-08-12T18:52:04.392Z,6.68
2022-08-12T18:57:16.776Z,6.88
2022-08-12T19:02:40.396Z,6.45
2022-08-12T19:07:59.974Z,6.30
2022-08-12T19:13:25.216Z,9.77
2022-08-12T19:18:36.968Z,8.88
2022-08-12T19:23:43.811Z,9.80
2022-08-12T19:28:49.428Z,8.88
2022-08-12T19:34:25.449Z,9.90
2022-08-12T19:39:23.076Z,12.23
2022-08-12T19:44:30.799Z,10.30
2022-08-12T19:49:36.049Z,10.18
2022-08-12T19:54:44.065Z,10.43
2022-08-12T20:00:03.462Z,7.68
2022-08-12T20:06:03.146Z,8.20
2022-08-12T20:10:36.320Z,11.90
2022-08-12T20:15:45.115Z,9.57
2022-08-12T20:20:49.284Z,8.65
2022-08-12T20:26:04.063Z,8.90
2022-08-12T20:31:17.629Z,7.75
2022-08-12T20:36:41.151Z,8.98
2022-08-12T20:41:50.969Z,7.15
2022-08-12T20:46:58.358Z,7.07
2022-08-12T20:52:02.635Z,8.00
2022-08-12T20:57:10.340Z,9.15
2022-08-12T21:02:15.638Z,7.13
2022-08-12T21:07:20.382Z,7.95
2022-08-12T21:12:34.058Z,7.43
2022-08-12T21:18:09.349Z,8.23
2022-08-12T21:23:05.966Z,7.40
2022-08-12T21:28:10.007Z,6.45
2022-08-12T21:33:18.453Z,6.35
2022-08-12T21:38:34.405Z,6.70
2022-08-12T21:43:44.433Z,5.70
2022-08-12T21:48:53.272Z,5.28
2022-08-12T21:54:07.141Z,7.32
2022-08-12T21:59:14.943Z,6.88
2022-08-12T22:04:38.427Z,7.10
2022-08-12T22:09:43.419Z,7.07
2022-08-12T22:19:52.726Z,7.88
2022-08-12T22:24:58.587Z,9.02
2022-08-12T22:30:20.147Z,8.18
2022-08-12T22:35:56.624Z,9.55
2022-08-12T22:41:00.829Z,10.20
2022-08-12T22:46:23.224Z,11.55
2022-08-12T22:52:00.352Z,10.27
2022-08-12T22:56:59.123Z,11.73
2022-08-12T23:02:07.719Z,10.82
2022-08-12T23:07:16.512Z,10.95
2022-08-12T23:12:34.077Z,11.60
2022-08-12T23:17:41.814Z,11.95
2022-08-12T23:23:02.624Z,13.33
2022-08-12T23:28:30.071Z,12.63
2022-08-12T23:34:01.494Z,12.70
2022-08-12T23:39:02.050Z,13.23
2022-08-12T23:44:07.293Z,10.85
2022-08-12T23:49:55.815Z,12.27
2022-08-12T23:54:44.286Z,11.45
2022-08-12T23:59:55.383Z,11.20
